sensor_id;sensor_type;location;lat;lon;timestamp;pressure;altitude;pressure_sealevel;temperature;humidity
15382;BME280;7789;51.364;12.358;2023-06-14T00:02:53;100341.66;;;16.02;60.80
15382;BME280;7789;51.364;12.358;2023-06-14T00:08:00;100343.28;;;15.95;61.39
15382;BME280;7789;51.364;12.358;2023-06-14T00:13:03;100346.88;;;15.86;62.12
15382;BME280;7789;51.364;12.358;2023-06-14T00:18:07;100345.88;;;15.79;62.08
15382;BME280;7789;51.364;12.358;2023-06-14T00:23:15;100342.38;;;15.71;63.02
15382;BME280;7789;51.364;12.358;2023-06-14T00:28:18;100349.09;;;15.65;63.19
15382;BME280;7789;51.364;12.358;2023-06-14T00:33:22;100335.41;;;15.62;63.46
15382;BME280;7789;51.364;12.358;2023-06-14T00:38:28;100336.19;;;15.54;63.97
15382;BME280;7789;51.364;12.358;2023-06-14T00:43:31;100335.00;;;15.49;64.36
15382;BME280;7789;51.364;12.358;2023-06-14T00:48:37;100344.69;;;15.40;65.30
15382;BME280;7789;51.364;12.358;2023-06-14T00:53:44;100337.41;;;15.34;65.90
15382;BME280;7789;51.364;12.358;2023-06-14T00:58:49;100341.78;;;15.26;66.54
15382;BME280;7789;51.364;12.358;2023-06-14T01:03:54;100338.78;;;15.21;66.68
15382;BME280;7789;51.364;12.358;2023-06-14T01:09:06;100338.13;;;15.19;68.19
15382;BME280;7789;51.364;12.358;2023-06-14T01:14:13;100333.63;;;15.11;67.56
15382;BME280;7789;51.364;12.358;2023-06-14T01:19:18;100347.41;;;15.05;68.52
15382;BME280;7789;51.364;12.358;2023-06-14T01:24:28;100342.94;;;14.98;68.92
15382;BME280;7789;51.364;12.358;2023-06-14T01:29:34;100344.69;;;14.89;69.43
15382;BME280;7789;51.364;12.358;2023-06-14T01:34:38;100348.75;;;14.84;70.03
15382;BME280;7789;51.364;12.358;2023-06-14T01:39:43;100347.22;;;14.82;70.26
15382;BME280;7789;51.364;12.358;2023-06-14T01:44:48;100340.25;;;14.73;71.05
15382;BME280;7789;51.364;12.358;2023-06-14T01:49:53;100346.78;;;14.69;71.61
15382;BME280;7789;51.364;12.358;2023-06-14T01:54:58;100341.47;;;14.61;72.59
15382;BME280;7789;51.364;12.358;2023-06-14T02:00:05;100339.28;;;14.56;72.65
15382;BME280;7789;51.364;12.358;2023-06-14T02:05:13;100341.25;;;14.54;72.75
15382;BME280;7789;51.364;12.358;2023-06-14T02:10:19;100343.88;;;14.54;73.79
15382;BME280;7789;51.364;12.358;2023-06-14T02:15:23;100345.84;;;14.52;73.64
15382;BME280;7789;51.364;12.358;2023-06-14T02:20:36;100347.78;;;14.50;74.03
15382;BME280;7789;51.364;12.358;2023-06-14T02:25:41;100343.13;;;14.44;74.97
15382;BME280;7789;51.364;12.358;2023-06-14T02:30:47;100357.41;;;14.42;74.99
15382;BME280;7789;51.364;12.358;2023-06-14T02:35:50;100355.38;;;14.36;75.76
15382;BME280;7789;51.364;12.358;2023-06-14T02:40:56;100364.84;;;14.29;76.44
15382;BME280;7789;51.364;12.358;2023-06-14T02:46:01;100366.63;;;14.28;76.75
15382;BME280;7789;51.364;12.358;2023-06-14T02:51:04;100369.44;;;14.27;77.08
15382;BME280;7789;51.364;12.358;2023-06-14T02:56:10;100377.88;;;14.21;77.94
15382;BME280;7789;51.364;12.358;2023-06-14T03:01:14;100377.50;;;14.16;78.25
15382;BME280;7789;51.364;12.358;2023-06-14T03:06:20;100378.75;;;14.12;78.71
15382;BME280;7789;51.364;12.358;2023-06-14T03:11:28;100388.16;;;14.14;79.22
15382;BME280;7789;51.364;12.358;2023-06-14T03:16:32;100381.53;;;14.10;79.55
15382;BME280;7789;51.364;12.358;2023-06-14T03:21:35;100384.81;;;14.12;79.45
15382;BME280;7789;51.364;12.358;2023-06-14T03:26:40;100380.47;;;14.03;80.49
15382;BME280;7789;51.364;12.358;2023-06-14T03:31:57;100391.66;;;14.05;81.48
15382;BME280;7789;51.364;12.358;2023-06-14T03:37:01;100387.91;;;14.08;80.12
15382;BME280;7789;51.364;12.358;2023-06-14T03:42:07;100409.25;;;14.05;81.04
15382;BME280;7789;51.364;12.358;2023-06-14T03:47:11;100408.72;;;14.01;80.89
15382;BME280;7789;51.364;12.358;2023-06-14T03:52:15;100408.94;;;14.08;81.42
15382;BME280;7789;51.364;12.358;2023-06-14T03:57:21;100402.41;;;14.12;82.05
15382;BME280;7789;51.364;12.358;2023-06-14T04:02:24;100417.78;;;14.16;82.05
15382;BME280;7789;51.364;12.358;2023-06-14T04:07:31;100426.50;;;14.17;82.39
15382;BME280;7789;51.364;12.358;2023-06-14T04:12:43;100424.56;;;14.09;83.92
15382;BME280;7789;51.364;12.358;2023-06-14T04:17:46;100428.69;;;14.21;83.61
15382;BME280;7789;51.364;12.358;2023-06-14T04:22:50;100423.81;;;14.26;83.50
15382;BME280;7789;51.364;12.358;2023-06-14T04:27:55;100425.25;;;14.38;83.73
15382;BME280;7789;51.364;12.358;2023-06-14T04:32:59;100427.59;;;14.41;83.96
15382;BME280;7789;51.364;12.358;2023-06-14T04:38:03;100431.81;;;14.52;83.54
15382;BME280;7789;51.364;12.358;2023-06-14T04:43:12;100429.75;;;14.73;83.18
15382;BME280;7789;51.364;12.358;2023-06-14T04:48:19;100425.28;;;16.75;76.29
15382;BME280;7789;51.364;12.358;2023-06-14T04:53:23;100412.91;;;19.52;66.50
15382;BME280;7789;51.364;12.358;2023-06-14T04:58:27;100408.06;;;21.54;58.27
15382;BME280;7789;51.364;12.358;2023-06-14T05:03:31;100410.34;;;23.36;53.10
15382;BME280;7789;51.364;12.358;2023-06-14T05:08:37;100413.63;;;24.78;48.38
15382;BME280;7789;51.364;12.358;2023-06-14T05:13:42;100427.47;;;25.73;44.10
15382;BME280;7789;51.364;12.358;2023-06-14T05:18:47;100431.19;;;26.91;42.00
15382;BME280;7789;51.364;12.358;2023-06-14T05:23:50;100428.38;;;27.27;39.75
15382;BME280;7789;51.364;12.358;2023-06-14T05:28:57;100432.94;;;28.18;37.66
15382;BME280;7789;51.364;12.358;2023-06-14T05:34:03;100443.34;;;27.46;37.86
15382;BME280;7789;51.364;12.358;2023-06-14T05:39:08;100442.44;;;28.49;36.61
15382;BME280;7789;51.364;12.358;2023-06-14T05:44:13;100452.63;;;30.01;34.92
15382;BME280;7789;51.364;12.358;2023-06-14T05:49:18;100451.63;;;30.93;33.00
15382;BME280;7789;51.364;12.358;2023-06-14T05:54:22;100459.94;;;31.44;31.84
15382;BME280;7789;51.364;12.358;2023-06-14T05:59:27;100457.28;;;32.32;30.64
15382;BME280;7789;51.364;12.358;2023-06-14T06:04:30;100467.16;;;32.63;29.80
15382;BME280;7789;51.364;12.358;2023-06-14T06:09:34;100465.09;;;33.05;28.65
15382;BME280;7789;51.364;12.358;2023-06-14T06:14:39;100475.16;;;33.04;28.99
15382;BME280;7789;51.364;12.358;2023-06-14T06:19:43;100478.38;;;32.87;28.05
15382;BME280;7789;51.364;12.358;2023-06-14T06:24:47;100477.22;;;34.42;27.35
15382;BME280;7789;51.364;12.358;2023-06-14T06:29:52;100478.03;;;34.96;26.11
15382;BME280;7789;51.364;12.358;2023-06-14T06:34:55;100484.97;;;34.69;26.64
15382;BME280;7789;51.364;12.358;2023-06-14T06:39:59;100469.22;;;31.90;29.71
15382;BME280;7789;51.364;12.358;2023-06-14T06:45:04;100478.03;;;30.43;30.78
15382;BME280;7789;51.364;12.358;2023-06-14T06:50:08;100473.59;;;29.78;32.19
15382;BME280;7789;51.364;12.358;2023-06-14T06:55:12;100479.41;;;29.86;32.29
15382;BME280;7789;51.364;12.358;2023-06-14T07:00:19;100497.88;;;29.17;33.34
15382;BME280;7789;51.364;12.358;2023-06-14T07:05:23;100479.81;;;27.99;35.44
15382;BME280;7789;51.364;12.358;2023-06-14T07:10:27;100487.88;;;27.99;35.04
15382;BME280;7789;51.364;12.358;2023-06-14T07:15:32;100492.31;;;28.28;33.92
15382;BME280;7789;51.364;12.358;2023-06-14T07:20:35;100489.75;;;30.11;31.73
15382;BME280;7789;51.364;12.358;2023-06-14T07:25:40;100501.22;;;29.52;31.94
15382;BME280;7789;51.364;12.358;2023-06-14T07:30:48;100485.19;;;27.99;34.89
15382;BME280;7789;51.364;12.358;2023-06-14T07:35:53;100500.63;;;30.16;31.37
15382;BME280;7789;51.364;12.358;2023-06-14T07:40:57;100496.91;;;31.34;30.26
15382;BME280;7789;51.364;12.358;2023-06-14T07:46:02;100495.22;;;31.96;29.24
15382;BME280;7789;51.364;12.358;2023-06-14T07:51:09;100500.06;;;31.89;29.15
15382;BME280;7789;51.364;12.358;2023-06-14T07:56:12;100500.41;;;29.68;31.31
15382;BME280;7789;51.364;12.358;2023-06-14T08:01:21;100501.09;;;28.24;33.86
15382;BME280;7789;51.364;12.358;2023-06-14T08:06:27;100496.81;;;27.36;34.47
15382;BME280;7789;51.364;12.358;2023-06-14T08:11:31;100503.22;;;26.94;34.86
15382;BME280;7789;51.364;12.358;2023-06-14T08:16:39;100498.69;;;26.76;35.35
15382;BME280;7789;51.364;12.358;2023-06-14T08:21:45;100496.50;;;26.56;35.93
15382;BME280;7789;51.364;12.358;2023-06-14T08:26:49;100496.63;;;26.61;36.60
15382;BME280;7789;51.364;12.358;2023-06-14T08:31:55;100501.38;;;26.23;36.31
15382;BME280;7789;51.364;12.358;2023-06-14T08:37:00;100499.72;;;25.30;36.90
15382;BME280;7789;51.364;12.358;2023-06-14T08:42:05;100497.53;;;25.14;36.76
15382;BME280;7789;51.364;12.358;2023-06-14T08:47:26;100490.47;;;26.24;35.88
15382;BME280;7789;51.364;12.358;2023-06-14T08:52:48;100497.78;;;25.19;37.52
15382;BME280;7789;51.364;12.358;2023-06-14T08:57:54;100492.41;;;24.82;38.07
15382;BME280;7789;51.364;12.358;2023-06-14T09:03:00;100489.50;;;24.27;38.92
15382;BME280;7789;51.364;12.358;2023-06-14T09:08:05;100498.97;;;24.29;38.10
15382;BME280;7789;51.364;12.358;2023-06-14T09:13:12;100515.81;;;24.23;37.88
15382;BME280;7789;51.364;12.358;2023-06-14T09:18:17;100511.75;;;24.08;38.73
15382;BME280;7789;51.364;12.358;2023-06-14T09:23:22;100507.03;;;23.97;38.55
15382;BME280;7789;51.364;12.358;2023-06-14T09:28:29;100498.59;;;24.00;38.42
15382;BME280;7789;51.364;12.358;2023-06-14T09:33:35;100510.09;;;24.20;38.15
15382;BME280;7789;51.364;12.358;2023-06-14T09:38:40;100510.88;;;24.33;38.17
15382;BME280;7789;51.364;12.358;2023-06-14T09:43:45;100508.34;;;24.51;37.93
15382;BME280;7789;51.364;12.358;2023-06-14T09:48:51;100511.28;;;24.37;38.40
15382;BME280;7789;51.364;12.358;2023-06-14T09:53:58;100508.91;;;24.03;38.73
15382;BME280;7789;51.364;12.358;2023-06-14T09:59:04;100492.22;;;24.07;38.97
15382;BME280;7789;51.364;12.358;2023-06-14T10:04:13;100494.28;;;23.99;39.17
15382;BME280;7789;51.364;12.358;2023-06-14T10:09:18;100495.13;;;24.12;38.85
15382;BME280;7789;51.364;12.358;2023-06-14T10:14:23;100492.97;;;24.34;38.27
15382;BME280;7789;51.364;12.358;2023-06-14T10:19:34;100516.84;;;24.35;38.41
15382;BME280;7789;51.364;12.358;2023-06-14T10:24:42;100501.84;;;24.21;39.13
15382;BME280;7789;51.364;12.358;2023-06-14T10:30:04;100504.16;;;24.11;39.13
15382;BME280;7789;51.364;12.358;2023-06-14T10:35:16;100500.69;;;23.72;39.19
15382;BME280;7789;51.364;12.358;2023-06-14T10:40:33;100512.81;;;23.87;39.12
15382;BME280;7789;51.364;12.358;2023-06-14T10:46:16;100490.84;;;23.59;39.52
15382;BME280;7789;51.364;12.358;2023-06-14T10:51:22;100497.19;;;23.71;39.27
15382;BME280;7789;51.364;12.358;2023-06-14T10:56:29;100488.38;;;23.84;39.25
15382;BME280;7789;51.364;12.358;2023-06-14T11:01:36;100492.69;;;23.65;39.58
15382;BME280;7789;51.364;12.358;2023-06-14T11:07:05;100494.09;;;23.42;40.48
15382;BME280;7789;51.364;12.358;2023-06-14T11:12:14;100484.03;;;23.37;40.56
15382;BME280;7789;51.364;12.358;2023-06-14T11:17:18;100477.25;;;23.48;41.43
15382;BME280;7789;51.364;12.358;2023-06-14T11:22:24;100465.34;;;23.89;40.85
15382;BME280;7789;51.364;12.358;2023-06-14T11:27:27;100468.84;;;23.83;41.75
15382;BME280;7789;51.364;12.358;2023-06-14T11:32:31;100466.59;;;23.48;40.80
15382;BME280;7789;51.364;12.358;2023-06-14T11:37:37;100457.97;;;23.46;41.40
15382;BME280;7789;51.364;12.358;2023-06-14T11:42:41;100462.69;;;23.63;41.01
15382;BME280;7789;51.364;12.358;2023-06-14T11:47:45;100448.94;;;23.47;40.25
15382;BME280;7789;51.364;12.358;2023-06-14T11:52:53;100448.50;;;23.56;41.03
15382;BME280;7789;51.364;12.358;2023-06-14T11:57:57;100438.84;;;23.81;41.08
15382;BME280;7789;51.364;12.358;2023-06-14T12:03:01;100438.84;;;23.94;41.69
15382;BME280;7789;51.364;12.358;2023-06-14T12:08:07;100437.81;;;23.89;41.04
15382;BME280;7789;51.364;12.358;2023-06-14T12:13:11;100441.44;;;24.14;40.80
15382;BME280;7789;51.364;12.358;2023-06-14T12:18:14;100443.06;;;24.21;41.22
15382;BME280;7789;51.364;12.358;2023-06-14T12:23:19;100443.25;;;24.26;41.09
15382;BME280;7789;51.364;12.358;2023-06-14T12:28:22;100434.28;;;24.01;42.17
15382;BME280;7789;51.364;12.358;2023-06-14T12:33:26;100437.97;;;24.07;41.64
15382;BME280;7789;51.364;12.358;2023-06-14T12:38:32;100430.81;;;23.94;42.15
15382;BME280;7789;51.364;12.358;2023-06-14T12:43:35;100436.56;;;23.91;42.42
15382;BME280;7789;51.364;12.358;2023-06-14T12:48:39;100431.25;;;23.85;42.55
15382;BME280;7789;51.364;12.358;2023-06-14T12:53:44;100441.50;;;23.75;43.12
15382;BME280;7789;51.364;12.358;2023-06-14T12:58:48;100445.84;;;23.82;42.73
15382;BME280;7789;51.364;12.358;2023-06-14T13:03:51;100440.50;;;23.69;43.34
15382;BME280;7789;51.364;12.358;2023-06-14T13:08:57;100437.22;;;23.87;43.47
15382;BME280;7789;51.364;12.358;2023-06-14T13:14:01;100442.31;;;23.88;44.33
15382;BME280;7789;51.364;12.358;2023-06-14T13:19:24;100441.09;;;23.78;44.22
15382;BME280;7789;51.364;12.358;2023-06-14T13:24:30;100449.53;;;23.88;44.15
15382;BME280;7789;51.364;12.358;2023-06-14T13:29:33;100440.25;;;23.90;44.44
15382;BME280;7789;51.364;12.358;2023-06-14T13:34:39;100445.00;;;23.95;44.69
15382;BME280;7789;51.364;12.358;2023-06-14T13:39:43;100435.34;;;23.87;44.25
15382;BME280;7789;51.364;12.358;2023-06-14T13:44:47;100430.38;;;24.10;44.57
15382;BME280;7789;51.364;12.358;2023-06-14T13:49:50;100441.72;;;23.93;44.36
15382;BME280;7789;51.364;12.358;2023-06-14T13:54:55;100440.84;;;23.99;44.07
15382;BME280;7789;51.364;12.358;2023-06-14T14:00:02;100456.09;;;23.98;44.66
15382;BME280;7789;51.364;12.358;2023-06-14T14:05:06;100445.00;;;23.88;44.18
15382;BME280;7789;51.364;12.358;2023-06-14T14:10:13;100443.56;;;23.66;44.72
15382;BME280;7789;51.364;12.358;2023-06-14T14:15:17;100439.88;;;23.67;44.57
15382;BME280;7789;51.364;12.358;2023-06-14T14:20:21;100441.53;;;23.55;44.01
15382;BME280;7789;51.364;12.358;2023-06-14T14:25:25;100438.66;;;23.50;44.47
15382;BME280;7789;51.364;12.358;2023-06-14T14:30:29;100431.66;;;23.69;44.74
15382;BME280;7789;51.364;12.358;2023-06-14T14:35:33;100427.75;;;23.71;44.61
15382;BME280;7789;51.364;12.358;2023-06-14T14:40:38;100429.00;;;23.75;44.63
15382;BME280;7789;51.364;12.358;2023-06-14T14:45:42;100445.00;;;23.88;44.61
15382;BME280;7789;51.364;12.358;2023-06-14T14:50:45;100441.94;;;23.78;44.04
15382;BME280;7789;51.364;12.358;2023-06-14T14:55:51;100440.47;;;23.76;44.16
15382;BME280;7789;51.364;12.358;2023-06-14T15:00:58;100451.59;;;23.66;44.16
15382;BME280;7789;51.364;12.358;2023-06-14T15:06:01;100434.78;;;23.53;44.37
15382;BME280;7789;51.364;12.358;2023-06-14T15:11:06;100430.66;;;23.50;44.19
15382;BME280;7789;51.364;12.358;2023-06-14T15:16:09;100430.47;;;23.45;44.38
15382;BME280;7789;51.364;12.358;2023-06-14T15:21:13;100428.59;;;23.39;44.96
15382;BME280;7789;51.364;12.358;2023-06-14T15:26:18;100414.22;;;23.40;45.12
15382;BME280;7789;51.364;12.358;2023-06-14T15:31:22;100423.69;;;23.49;45.01
15382;BME280;7789;51.364;12.358;2023-06-14T15:36:29;100424.47;;;23.56;43.99
15382;BME280;7789;51.364;12.358;2023-06-14T15:41:34;100442.34;;;23.62;43.70
15382;BME280;7789;51.364;12.358;2023-06-14T15:46:37;100427.78;;;23.52;44.02
15382;BME280;7789;51.364;12.358;2023-06-14T15:51:41;100427.78;;;23.45;44.14
15382;BME280;7789;51.364;12.358;2023-06-14T15:56:45;100420.59;;;23.46;44.69
15382;BME280;7789;51.364;12.358;2023-06-14T16:01:49;100425.72;;;23.47;45.00
15382;BME280;7789;51.364;12.358;2023-06-14T16:06:53;100419.78;;;23.39;45.58
15382;BME280;7789;51.364;12.358;2023-06-14T16:11:58;100424.50;;;23.30;45.65
15382;BME280;7789;51.364;12.358;2023-06-14T16:17:02;100430.44;;;23.13;45.93
15382;BME280;7789;51.364;12.358;2023-06-14T16:22:06;100419.53;;;23.01;46.43
15382;BME280;7789;51.364;12.358;2023-06-14T16:27:11;100430.00;;;22.96;46.45
15382;BME280;7789;51.364;12.358;2023-06-14T16:32:16;100430.44;;;23.00;46.76
15382;BME280;7789;51.364;12.358;2023-06-14T16:37:20;100423.63;;;22.91;46.91
15382;BME280;7789;51.364;12.358;2023-06-14T16:42:25;100424.66;;;22.90;47.22
15382;BME280;7789;51.364;12.358;2023-06-14T16:47:29;100421.38;;;22.94;46.80
15382;BME280;7789;51.364;12.358;2023-06-14T16:52:32;100430.00;;;23.03;47.09
15382;BME280;7789;51.364;12.358;2023-06-14T16:57:37;100429.41;;;23.01;47.09
15382;BME280;7789;51.364;12.358;2023-06-14T17:02:41;100420.75;;;23.05;46.98
15382;BME280;7789;51.364;12.358;2023-06-14T17:07:45;100422.81;;;22.97;46.93
15382;BME280;7789;51.364;12.358;2023-06-14T17:12:50;100422.22;;;23.08;47.60
15382;BME280;7789;51.364;12.358;2023-06-14T17:17:53;100433.28;;;23.05;47.30
15382;BME280;7789;51.364;12.358;2023-06-14T17:22:57;100432.28;;;23.06;46.96
15382;BME280;7789;51.364;12.358;2023-06-14T17:28:02;100438.22;;;23.08;47.07
15382;BME280;7789;51.364;12.358;2023-06-14T17:33:08;100444.63;;;23.13;47.07
15382;BME280;7789;51.364;12.358;2023-06-14T17:38:16;100445.03;;;23.17;47.10
15382;BME280;7789;51.364;12.358;2023-06-14T17:43:20;100439.50;;;23.18;47.53
15382;BME280;7789;51.364;12.358;2023-06-14T17:48:25;100440.28;;;23.06;46.90
15382;BME280;7789;51.364;12.358;2023-06-14T17:53:29;100438.81;;;22.97;47.14
15382;BME280;7789;51.364;12.358;2023-06-14T17:58:34;100448.06;;;22.94;47.38
15382;BME280;7789;51.364;12.358;2023-06-14T18:03:37;100452.34;;;22.82;47.17
15382;BME280;7789;51.364;12.358;2023-06-14T18:08:41;100452.53;;;22.74;47.36
15382;BME280;7789;51.364;12.358;2023-06-14T18:13:47;100447.38;;;22.67;47.72
15382;BME280;7789;51.364;12.358;2023-06-14T18:18:50;100448.81;;;22.63;47.58
15382;BME280;7789;51.364;12.358;2023-06-14T18:23:55;100441.22;;;22.60;47.98
15382;BME280;7789;51.364;12.358;2023-06-14T18:29:01;100451.63;;;22.55;48.17
15382;BME280;7789;51.364;12.358;2023-06-14T18:34:04;100447.50;;;22.46;48.08
15382;BME280;7789;51.364;12.358;2023-06-14T18:39:09;100447.47;;;22.39;48.54
15382;BME280;7789;51.364;12.358;2023-06-14T18:44:14;100446.00;;;22.30;48.48
15382;BME280;7789;51.364;12.358;2023-06-14T18:49:18;100441.66;;;22.23;49.08
15382;BME280;7789;51.364;12.358;2023-06-14T18:54:23;100451.84;;;22.13;49.05
15382;BME280;7789;51.364;12.358;2023-06-14T18:59:29;100460.00;;;22.05;49.39
15382;BME280;7789;51.364;12.358;2023-06-14T19:04:32;100456.25;;;21.93;50.33
15382;BME280;7789;51.364;12.358;2023-06-14T19:09:36;100469.91;;;21.83;51.08
15382;BME280;7789;51.364;12.358;2023-06-14T19:14:41;100464.94;;;21.74;51.52
15382;BME280;7789;51.364;12.358;2023-06-14T19:19:45;100464.66;;;21.62;52.50
15382;BME280;7789;51.364;12.358;2023-06-14T19:24:48;100461.28;;;21.54;52.70
15382;BME280;7789;51.364;12.358;2023-06-14T19:29:53;100467.75;;;21.45;52.48
15382;BME280;7789;51.364;12.358;2023-06-14T19:34:57;100469.25;;;21.33;53.26
15382;BME280;7789;51.364;12.358;2023-06-14T19:40:03;100481.44;;;21.21;53.32
15382;BME280;7789;51.364;12.358;2023-06-14T19:45:09;100480.94;;;21.11;53.88
15382;BME280;7789;51.364;12.358;2023-06-14T19:50:15;100489.41;;;21.00;54.61
15382;BME280;7789;51.364;12.358;2023-06-14T19:55:19;100499.72;;;20.88;55.34
15382;BME280;7789;51.364;12.358;2023-06-14T20:00:24;100498.97;;;20.80;55.04
15382;BME280;7789;51.364;12.358;2023-06-14T20:05:28;100502.13;;;20.69;55.46
15382;BME280;7789;51.364;12.358;2023-06-14T20:10:33;100497.47;;;20.57;56.74
15382;BME280;7789;51.364;12.358;2023-06-14T20:15:38;100504.94;;;20.47;57.20
15382;BME280;7789;51.364;12.358;2023-06-14T20:20:42;100504.75;;;20.34;58.00
15382;BME280;7789;51.364;12.358;2023-06-14T20:25:45;100511.34;;;20.23;58.96
15382;BME280;7789;51.364;12.358;2023-06-14T20:30:54;100509.97;;;20.13;59.18
15382;BME280;7789;51.364;12.358;2023-06-14T20:35:58;100507.59;;;20.03;60.13
15382;BME280;7789;51.364;12.358;2023-06-14T20:41:02;100499.22;;;19.92;60.96
15382;BME280;7789;51.364;12.358;2023-06-14T20:46:07;100493.81;;;19.85;61.50
15382;BME280;7789;51.364;12.358;2023-06-14T20:51:10;100500.31;;;19.83;61.82
15382;BME280;7789;51.364;12.358;2023-06-14T20:56:14;100502.97;;;19.83;62.17
15382;BME280;7789;51.364;12.358;2023-06-14T21:01:19;100502.31;;;19.81;62.29
15382;BME280;7789;51.364;12.358;2023-06-14T21:06:23;100505.97;;;19.80;61.68
15382;BME280;7789;51.364;12.358;2023-06-14T21:11:27;100501.69;;;19.79;60.60
15382;BME280;7789;51.364;12.358;2023-06-14T21:16:32;100501.84;;;19.77;60.50
15382;BME280;7789;51.364;12.358;2023-06-14T21:21:36;100498.91;;;19.72;60.79
15382;BME280;7789;51.364;12.358;2023-06-14T21:26:40;100494.78;;;19.70;60.93
15382;BME280;7789;51.364;12.358;2023-06-14T21:31:45;100492.78;;;19.72;60.88
15382;BME280;7789;51.364;12.358;2023-06-14T21:36:49;100493.78;;;19.71;61.05
15382;BME280;7789;51.364;12.358;2023-06-14T21:41:54;100493.34;;;19.67;61.66
15382;BME280;7789;51.364;12.358;2023-06-14T21:46:59;100501.84;;;19.63;62.17
15382;BME280;7789;51.364;12.358;2023-06-14T21:52:05;100496.06;;;19.59;61.76
15382;BME280;7789;51.364;12.358;2023-06-14T21:57:08;100501.72;;;19.56;61.71
15382;BME280;7789;51.364;12.358;2023-06-14T22:02:13;100505.38;;;19.55;61.43
15382;BME280;7789;51.364;12.358;2023-06-14T22:07:17;100510.22;;;19.52;61.71
15382;BME280;7789;51.364;12.358;2023-06-14T22:12:21;100504.44;;;19.48;62.14
15382;BME280;7789;51.364;12.358;2023-06-14T22:17:27;100509.97;;;19.39;62.37
15382;BME280;7789;51.364;12.358;2023-06-14T22:22:31;100503.75;;;19.32;62.20
15382;BME280;7789;51.364;12.358;2023-06-14T22:27:39;100505.94;;;19.28;62.63
15382;BME280;7789;51.364;12.358;2023-06-14T22:32:48;100505.00;;;19.21;63.00
15382;BME280;7789;51.364;12.358;2023-06-14T22:37:55;100509.50;;;19.13;63.78
15382;BME280;7789;51.364;12.358;2023-06-14T22:42:59;100511.66;;;19.09;63.51
15382;BME280;7789;51.364;12.358;2023-06-14T22:48:04;100513.03;;;19.05;63.64
15382;BME280;7789;51.364;12.358;2023-06-14T22:53:08;100514.84;;;19.05;64.15
15382;BME280;7789;51.364;12.358;2023-06-14T22:58:12;100502.59;;;19.04;63.88
15382;BME280;7789;51.364;12.358;2023-06-14T23:03:18;100512.38;;;19.03;64.10
15382;BME280;7789;51.364;12.358;2023-06-14T23:08:21;100506.09;;;19.04;64.42
15382;BME280;7789;51.364;12.358;2023-06-14T23:13:25;100500.59;;;19.06;64.81
15382;BME280;7789;51.364;12.358;2023-06-14T23:18:30;100495.75;;;19.09;64.81
15382;BME280;7789;51.364;12.358;2023-06-14T23:23:33;100500.91;;;19.11;65.98
15382;BME280;7789;51.364;12.358;2023-06-14T23:28:38;100494.25;;;19.15;64.76
15382;BME280;7789;51.364;12.358;2023-06-14T23:33:48;100498.41;;;19.17;64.89
15382;BME280;7789;51.364;12.358;2023-06-14T23:38:52;100499.94;;;19.04;65.38
15382;BME280;7789;51.364;12.358;2023-06-14T23:43:55;100496.28;;;19.05;65.49
15382;BME280;7789;51.364;12.358;2023-06-14T23:49:00;100493.19;;;19.01;65.96
15382;BME280;7789;51.364;12.358;2023-06-14T23:54:04;100496.53;;;18.95;65.89
15382;BME280;7789;51.364;12.358;2023-06-14T23:59:11;100487.47;;;18.90;66.48
